sensor_id;sensor_type;location;lat;lon;timestamp;P1;durP1;ratioP1;P2;durP2;ratioP2
33491;SDS011;20010;51.488;7.232;2023-11-21T00:02:17;17.63;;;14.38;;
33491;SDS011;20010;51.488;7.232;2023-11-21T00:04:44;21.40;;;14.35;;
33491;SDS011;20010;51.488;7.232;2023-11-21T00:07:12;27.83;;;15.77;;
33491;SDS011;20010;51.488;7.232;2023-11-21T00:09:39;22.60;;;13.43;;
33491;SDS011;20010;51.488;7.232;2023-11-21T00:12:05;18.13;;;14.45;;
33491;SDS011;20010;51.488;7.232;2023-11-21T00:14:36;17.38;;;12.45;;
33491;SDS011;20010;51.488;7.232;2023-11-21T00:17:04;21.77;;;16.23;;
33491;SDS011;20010;51.488;7.232;2023-11-21T00:19:32;18.30;;;14.18;;
33491;SDS011;20010;51.488;7.232;2023-11-21T00:21:59;23.95;;;16.70;;
33491;SDS011;20010;51.488;7.232;2023-11-21T00:24:26;17.05;;;13.75;;
33491;SDS011;20010;51.488;7.232;2023-11-21T00:26:53;20.95;;;14.70;;
33491;SDS011;20010;51.488;7.232;2023-11-21T00:29:19;20.50;;;15.25;;
33491;SDS011;20010;51.488;7.232;2023-11-21T00:31:46;20.33;;;15.60;;
33491;SDS011;20010;51.488;7.232;2023-11-21T00:34:12;18.90;;;16.30;;
33491;SDS011;20010;51.488;7.232;2023-11-21T00:36:39;26.23;;;17.38;;
33491;SDS011;20010;51.488;7.232;2023-11-21T00:39:06;26.67;;;18.35;;
33491;SDS011;20010;51.488;7.232;2023-11-21T00:41:33;19.02;;;16.73;;
33491;SDS011;20010;51.488;7.232;2023-11-21T00:44:00;25.20;;;18.23;;
33491;SDS011;20010;51.488;7.232;2023-11-21T00:46:27;19.63;;;15.40;;
33491;SDS011;20010;51.488;7.232;2023-11-21T00:48:55;27.05;;;18.13;;
33491;SDS011;20010;51.488;7.232;2023-11-21T00:51:22;20.52;;;17.05;;
33491;SDS011;20010;51.488;7.232;2023-11-21T00:53:48;25.25;;;16.98;;
33491;SDS011;20010;51.488;7.232;2023-11-21T00:56:15;26.95;;;18.13;;
33491;SDS011;20010;51.488;7.232;2023-11-21T00:58:42;22.73;;;15.63;;
33491;SDS011;20010;51.488;7.232;2023-11-21T01:01:12;27.35;;;19.58;;
33491;SDS011;20010;51.488;7.232;2023-11-21T01:03:39;23.15;;;13.50;;
33491;SDS011;20010;51.488;7.232;2023-11-21T01:06:06;25.02;;;16.58;;
33491;SDS011;20010;51.488;7.232;2023-11-21T01:08:33;20.98;;;16.48;;
33491;SDS011;20010;51.488;7.232;2023-11-21T01:11:00;25.30;;;17.20;;
33491;SDS011;20010;51.488;7.232;2023-11-21T01:13:26;24.33;;;15.65;;
33491;SDS011;20010;51.488;7.232;2023-11-21T01:15:56;26.58;;;15.43;;
33491;SDS011;20010;51.488;7.232;2023-11-21T01:18:23;20.67;;;15.60;;
33491;SDS011;20010;51.488;7.232;2023-11-21T01:20:52;25.35;;;15.48;;
33491;SDS011;20010;51.488;7.232;2023-11-21T01:23:21;18.45;;;13.68;;
33491;SDS011;20010;51.488;7.232;2023-11-21T01:25:48;21.60;;;15.32;;
33491;SDS011;20010;51.488;7.232;2023-11-21T01:28:15;18.42;;;14.75;;
33491;SDS011;20010;51.488;7.232;2023-11-21T01:30:43;20.65;;;16.23;;
33491;SDS011;20010;51.488;7.232;2023-11-21T01:33:10;15.32;;;13.60;;
33491;SDS011;20010;51.488;7.232;2023-11-21T01:35:37;21.63;;;14.15;;
33491;SDS011;20010;51.488;7.232;2023-11-21T01:38:03;23.92;;;16.40;;
33491;SDS011;20010;51.488;7.232;2023-11-21T01:40:30;23.50;;;14.85;;
33491;SDS011;20010;51.488;7.232;2023-11-21T01:42:57;22.77;;;16.33;;
33491;SDS011;20010;51.488;7.232;2023-11-21T01:45:24;19.13;;;14.23;;
33491;SDS011;20010;51.488;7.232;2023-11-21T01:47:51;28.95;;;17.30;;
33491;SDS011;20010;51.488;7.232;2023-11-21T01:50:21;22.83;;;16.05;;
33491;SDS011;20010;51.488;7.232;2023-11-21T01:52:48;20.27;;;15.27;;
33491;SDS011;20010;51.488;7.232;2023-11-21T01:55:16;21.83;;;14.40;;
33491;SDS011;20010;51.488;7.232;2023-11-21T01:57:54;28.33;;;17.17;;
33491;SDS011;20010;51.488;7.232;2023-11-21T02:00:22;20.13;;;15.63;;
33491;SDS011;20010;51.488;7.232;2023-11-21T02:02:50;28.02;;;17.15;;
33491;SDS011;20010;51.488;7.232;2023-11-21T02:05:17;21.08;;;15.48;;
33491;SDS011;20010;51.488;7.232;2023-11-21T02:07:45;28.05;;;16.95;;
33491;SDS011;20010;51.488;7.232;2023-11-21T02:10:15;20.00;;;14.27;;
33491;SDS011;20010;51.488;7.232;2023-11-21T02:12:43;22.92;;;15.00;;
33491;SDS011;20010;51.488;7.232;2023-11-21T02:15:12;17.15;;;13.68;;
33491;SDS011;20010;51.488;7.232;2023-11-21T02:17:47;20.52;;;14.35;;
33491;SDS011;20010;51.488;7.232;2023-11-21T02:20:18;20.65;;;15.18;;
33491;SDS011;20010;51.488;7.232;2023-11-21T02:22:55;27.63;;;18.73;;
33491;SDS011;20010;51.488;7.232;2023-11-21T02:25:27;17.70;;;14.52;;
33491;SDS011;20010;51.488;7.232;2023-11-21T02:27:55;23.83;;;16.80;;
33491;SDS011;20010;51.488;7.232;2023-11-21T02:30:22;19.95;;;14.85;;
33491;SDS011;20010;51.488;7.232;2023-11-21T02:32:48;26.50;;;14.82;;
33491;SDS011;20010;51.488;7.232;2023-11-21T02:35:15;17.27;;;14.60;;
33491;SDS011;20010;51.488;7.232;2023-11-21T02:37:42;17.25;;;14.13;;
33491;SDS011;20010;51.488;7.232;2023-11-21T02:40:09;24.08;;;16.33;;
33491;SDS011;20010;51.488;7.232;2023-11-21T02:42:39;19.20;;;15.50;;
33491;SDS011;20010;51.488;7.232;2023-11-21T02:45:07;18.67;;;14.30;;
33491;SDS011;20010;51.488;7.232;2023-11-21T02:47:34;20.30;;;14.88;;
33491;SDS011;20010;51.488;7.232;2023-11-21T02:50:01;19.10;;;14.30;;
33491;SDS011;20010;51.488;7.232;2023-11-21T02:52:28;29.83;;;17.02;;
33491;SDS011;20010;51.488;7.232;2023-11-21T02:54:54;20.98;;;14.68;;
33491;SDS011;20010;51.488;7.232;2023-11-21T02:57:21;23.63;;;14.90;;
33491;SDS011;20010;51.488;7.232;2023-11-21T02:59:48;22.05;;;14.90;;
33491;SDS011;20010;51.488;7.232;2023-11-21T03:02:14;22.23;;;14.93;;
33491;SDS011;20010;51.488;7.232;2023-11-21T03:04:42;20.05;;;15.57;;
33491;SDS011;20010;51.488;7.232;2023-11-21T03:07:09;30.65;;;17.23;;
33491;SDS011;20010;51.488;7.232;2023-11-21T03:09:35;15.30;;;13.02;;
33491;SDS011;20010;51.488;7.232;2023-11-21T03:12:02;30.45;;;17.73;;
33491;SDS011;20010;51.488;7.232;2023-11-21T03:14:29;20.98;;;14.35;;
33491;SDS011;20010;51.488;7.232;2023-11-21T03:16:55;19.05;;;14.40;;
33491;SDS011;20010;51.488;7.232;2023-11-21T03:19:22;27.88;;;16.63;;
33491;SDS011;20010;51.488;7.232;2023-11-21T03:21:49;20.83;;;15.13;;
33491;SDS011;20010;51.488;7.232;2023-11-21T03:24:19;22.15;;;15.15;;
33491;SDS011;20010;51.488;7.232;2023-11-21T03:26:46;22.33;;;14.77;;
33491;SDS011;20010;51.488;7.232;2023-11-21T03:29:13;25.65;;;18.52;;
33491;SDS011;20010;51.488;7.232;2023-11-21T03:31:40;22.10;;;16.52;;
33491;SDS011;20010;51.488;7.232;2023-11-21T03:34:09;26.27;;;18.88;;
33491;SDS011;20010;51.488;7.232;2023-11-21T03:36:38;18.88;;;16.02;;
33491;SDS011;20010;51.488;7.232;2023-11-21T03:39:04;31.75;;;16.33;;
33491;SDS011;20010;51.488;7.232;2023-11-21T03:41:31;28.08;;;19.10;;
33491;SDS011;20010;51.488;7.232;2023-11-21T03:43:58;20.05;;;17.13;;
33491;SDS011;20010;51.488;7.232;2023-11-21T03:46:25;22.63;;;16.30;;
33491;SDS011;20010;51.488;7.232;2023-11-21T03:48:52;19.35;;;15.13;;
33491;SDS011;20010;51.488;7.232;2023-11-21T03:51:18;29.05;;;17.45;;
33491;SDS011;20010;51.488;7.232;2023-11-21T03:53:45;21.08;;;16.48;;
33491;SDS011;20010;51.488;7.232;2023-11-21T03:56:11;20.20;;;15.20;;
33491;SDS011;20010;51.488;7.232;2023-11-21T03:58:40;22.15;;;16.73;;
33491;SDS011;20010;51.488;7.232;2023-11-21T04:01:06;24.88;;;15.85;;
33491;SDS011;20010;51.488;7.232;2023-11-21T04:03:33;22.50;;;16.27;;
33491;SDS011;20010;51.488;7.232;2023-11-21T04:06:00;21.50;;;16.58;;
33491;SDS011;20010;51.488;7.232;2023-11-21T04:08:27;17.88;;;14.27;;
33491;SDS011;20010;51.488;7.232;2023-11-21T04:10:54;18.48;;;14.65;;
33491;SDS011;20010;51.488;7.232;2023-11-21T04:13:21;22.73;;;14.70;;
33491;SDS011;20010;51.488;7.232;2023-11-21T04:15:47;23.90;;;16.02;;
33491;SDS011;20010;51.488;7.232;2023-11-21T04:18:14;18.10;;;15.38;;
33491;SDS011;20010;51.488;7.232;2023-11-21T04:20:41;16.83;;;13.48;;
33491;SDS011;20010;51.488;7.232;2023-11-21T04:23:07;20.05;;;15.00;;
33491;SDS011;20010;51.488;7.232;2023-11-21T04:25:36;16.52;;;13.48;;
33491;SDS011;20010;51.488;7.232;2023-11-21T04:28:03;17.15;;;14.63;;
33491;SDS011;20010;51.488;7.232;2023-11-21T04:30:30;18.13;;;13.30;;
33491;SDS011;20010;51.488;7.232;2023-11-21T04:32:57;15.75;;;13.50;;
33491;SDS011;20010;51.488;7.232;2023-11-21T04:35:24;19.85;;;14.73;;
33491;SDS011;20010;51.488;7.232;2023-11-21T04:37:50;15.52;;;13.65;;
33491;SDS011;20010;51.488;7.232;2023-11-21T04:40:17;20.10;;;14.20;;
33491;SDS011;20010;51.488;7.232;2023-11-21T04:42:44;25.00;;;16.40;;
33491;SDS011;20010;51.488;7.232;2023-11-21T04:45:10;18.45;;;14.73;;
33491;SDS011;20010;51.488;7.232;2023-11-21T04:47:39;22.90;;;15.18;;
33491;SDS011;20010;51.488;7.232;2023-11-21T04:50:06;19.27;;;14.65;;
33491;SDS011;20010;51.488;7.232;2023-11-21T04:52:32;26.90;;;18.02;;
33491;SDS011;20010;51.488;7.232;2023-11-21T04:55:02;20.92;;;12.88;;
33491;SDS011;20010;51.488;7.232;2023-11-21T04:57:29;25.20;;;16.95;;
33491;SDS011;20010;51.488;7.232;2023-11-21T04:59:55;17.77;;;14.35;;
33491;SDS011;20010;51.488;7.232;2023-11-21T05:02:22;26.10;;;16.52;;
33491;SDS011;20010;51.488;7.232;2023-11-21T05:05:01;29.83;;;17.15;;
33491;SDS011;20010;51.488;7.232;2023-11-21T05:07:28;20.50;;;13.90;;
33491;SDS011;20010;51.488;7.232;2023-11-21T05:09:57;25.65;;;16.98;;
33491;SDS011;20010;51.488;7.232;2023-11-21T05:12:24;22.98;;;14.80;;
33491;SDS011;20010;51.488;7.232;2023-11-21T05:14:51;21.55;;;17.45;;
33491;SDS011;20010;51.488;7.232;2023-11-21T05:17:17;24.35;;;15.75;;
33491;SDS011;20010;51.488;7.232;2023-11-21T05:19:44;17.15;;;15.40;;
33491;SDS011;20010;51.488;7.232;2023-11-21T05:22:15;22.17;;;14.57;;
33491;SDS011;20010;51.488;7.232;2023-11-21T05:24:41;25.67;;;17.17;;
33491;SDS011;20010;51.488;7.232;2023-11-21T05:27:08;23.05;;;15.02;;
33491;SDS011;20010;51.488;7.232;2023-11-21T05:29:36;20.38;;;15.75;;
33491;SDS011;20010;51.488;7.232;2023-11-21T05:32:04;29.55;;;18.17;;
33491;SDS011;20010;51.488;7.232;2023-11-21T05:34:31;36.45;;;22.38;;
33491;SDS011;20010;51.488;7.232;2023-11-21T05:36:57;32.67;;;21.20;;
33491;SDS011;20010;51.488;7.232;2023-11-21T05:39:24;33.92;;;20.95;;
33491;SDS011;20010;51.488;7.232;2023-11-21T05:41:51;21.15;;;18.48;;
33491;SDS011;20010;51.488;7.232;2023-11-21T05:44:18;30.75;;;20.90;;
33491;SDS011;20010;51.488;7.232;2023-11-21T05:46:44;35.80;;;24.08;;
33491;SDS011;20010;51.488;7.232;2023-11-21T05:49:11;24.27;;;20.65;;
33491;SDS011;20010;51.488;7.232;2023-11-21T05:51:38;35.53;;;22.85;;
33491;SDS011;20010;51.488;7.232;2023-11-21T05:54:05;25.95;;;19.08;;
33491;SDS011;20010;51.488;7.232;2023-11-21T05:56:31;33.15;;;22.63;;
33491;SDS011;20010;51.488;7.232;2023-11-21T05:58:58;47.97;;;33.25;;
33491;SDS011;20010;51.488;7.232;2023-11-21T06:01:26;35.17;;;24.50;;
33491;SDS011;20010;51.488;7.232;2023-11-21T06:03:55;42.05;;;27.73;;
33491;SDS011;20010;51.488;7.232;2023-11-21T06:06:22;34.50;;;23.73;;
33491;SDS011;20010;51.488;7.232;2023-11-21T06:08:48;37.10;;;24.35;;
33491;SDS011;20010;51.488;7.232;2023-11-21T06:11:15;27.23;;;19.48;;
33491;SDS011;20010;51.488;7.232;2023-11-21T06:13:43;32.33;;;20.15;;
33491;SDS011;20010;51.488;7.232;2023-11-21T06:16:10;23.83;;;17.63;;
33491;SDS011;20010;51.488;7.232;2023-11-21T06:18:39;27.25;;;18.35;;
33491;SDS011;20010;51.488;7.232;2023-11-21T06:21:08;21.08;;;16.02;;
33491;SDS011;20010;51.488;7.232;2023-11-21T06:23:35;30.27;;;19.20;;
33491;SDS011;20010;51.488;7.232;2023-11-21T06:26:02;22.13;;;16.40;;
33491;SDS011;20010;51.488;7.232;2023-11-21T06:28:30;28.50;;;19.42;;
33491;SDS011;20010;51.488;7.232;2023-11-21T06:30:57;21.25;;;15.48;;
33491;SDS011;20010;51.488;7.232;2023-11-21T06:33:32;24.23;;;17.15;;
33491;SDS011;20010;51.488;7.232;2023-11-21T06:35:58;27.80;;;18.02;;
33491;SDS011;20010;51.488;7.232;2023-11-21T06:38:25;32.05;;;19.27;;
33491;SDS011;20010;51.488;7.232;2023-11-21T06:40:54;25.98;;;16.42;;
33491;SDS011;20010;51.488;7.232;2023-11-21T06:43:21;26.50;;;17.23;;
33491;SDS011;20010;51.488;7.232;2023-11-21T06:45:48;32.33;;;19.75;;
33491;SDS011;20010;51.488;7.232;2023-11-21T06:48:15;27.77;;;18.30;;
33491;SDS011;20010;51.488;7.232;2023-11-21T06:50:41;40.63;;;19.67;;
33491;SDS011;20010;51.488;7.232;2023-11-21T06:53:08;25.55;;;16.05;;
33491;SDS011;20010;51.488;7.232;2023-11-21T06:55:36;30.73;;;18.15;;
33491;SDS011;20010;51.488;7.232;2023-11-21T06:58:02;22.27;;;15.80;;
33491;SDS011;20010;51.488;7.232;2023-11-21T07:00:29;27.38;;;16.85;;
33491;SDS011;20010;51.488;7.232;2023-11-21T07:02:55;21.73;;;16.25;;
33491;SDS011;20010;51.488;7.232;2023-11-21T07:05:22;39.53;;;28.10;;
33491;SDS011;20010;51.488;7.232;2023-11-21T07:07:49;36.95;;;22.00;;
33491;SDS011;20010;51.488;7.232;2023-11-21T07:10:16;31.25;;;19.45;;
33491;SDS011;20010;51.488;7.232;2023-11-21T07:12:43;35.15;;;20.88;;
33491;SDS011;20010;51.488;7.232;2023-11-21T07:15:10;42.63;;;22.35;;
33491;SDS011;20010;51.488;7.232;2023-11-21T07:17:36;23.25;;;17.00;;
33491;SDS011;20010;51.488;7.232;2023-11-21T07:20:06;25.85;;;17.35;;
33491;SDS011;20010;51.488;7.232;2023-11-21T07:22:33;40.03;;;20.52;;
33491;SDS011;20010;51.488;7.232;2023-11-21T07:25:00;33.42;;;20.38;;
33491;SDS011;20010;51.488;7.232;2023-11-21T07:27:27;23.88;;;18.10;;
33491;SDS011;20010;51.488;7.232;2023-11-21T07:29:53;37.70;;;21.02;;
33491;SDS011;20010;51.488;7.232;2023-11-21T07:32:20;23.20;;;17.95;;
33491;SDS011;20010;51.488;7.232;2023-11-21T07:34:47;32.30;;;18.38;;
33491;SDS011;20010;51.488;7.232;2023-11-21T07:37:13;35.40;;;21.63;;
33491;SDS011;20010;51.488;7.232;2023-11-21T07:39:40;36.50;;;25.73;;
33491;SDS011;20010;51.488;7.232;2023-11-21T07:42:08;46.85;;;26.45;;
33491;SDS011;20010;51.488;7.232;2023-11-21T07:44:35;33.65;;;22.83;;
33491;SDS011;20010;51.488;7.232;2023-11-21T07:47:02;31.98;;;21.73;;
33491;SDS011;20010;51.488;7.232;2023-11-21T07:49:29;31.02;;;20.67;;
33491;SDS011;20010;51.488;7.232;2023-11-21T07:51:55;25.17;;;18.25;;
33491;SDS011;20010;51.488;7.232;2023-11-21T07:54:22;35.83;;;20.85;;
33491;SDS011;20010;51.488;7.232;2023-11-21T07:56:48;35.65;;;21.48;;
33491;SDS011;20010;51.488;7.232;2023-11-21T07:59:15;34.50;;;20.73;;
33491;SDS011;20010;51.488;7.232;2023-11-21T08:01:41;34.15;;;22.58;;
33491;SDS011;20010;51.488;7.232;2023-11-21T08:04:09;30.25;;;20.25;;
33491;SDS011;20010;51.488;7.232;2023-11-21T08:06:36;32.30;;;21.58;;
33491;SDS011;20010;51.488;7.232;2023-11-21T08:09:03;33.70;;;19.73;;
33491;SDS011;20010;51.488;7.232;2023-11-21T08:11:30;30.67;;;20.20;;
33491;SDS011;20010;51.488;7.232;2023-11-21T08:13:58;28.80;;;18.75;;
33491;SDS011;20010;51.488;7.232;2023-11-21T08:16:26;26.80;;;19.80;;
33491;SDS011;20010;51.488;7.232;2023-11-21T08:18:54;31.65;;;21.10;;
33491;SDS011;20010;51.488;7.232;2023-11-21T08:21:21;32.90;;;21.77;;
33491;SDS011;20010;51.488;7.232;2023-11-21T08:23:50;34.55;;;23.52;;
33491;SDS011;20010;51.488;7.232;2023-11-21T08:26:21;36.55;;;23.15;;
33491;SDS011;20010;51.488;7.232;2023-11-21T08:28:48;36.10;;;22.92;;
33491;SDS011;20010;51.488;7.232;2023-11-21T08:31:14;35.78;;;24.48;;
33491;SDS011;20010;51.488;7.232;2023-11-21T08:33:42;36.95;;;24.63;;
33491;SDS011;20010;51.488;7.232;2023-11-21T08:36:09;39.45;;;24.85;;
33491;SDS011;20010;51.488;7.232;2023-11-21T08:38:37;39.55;;;27.02;;
33491;SDS011;20010;51.488;7.232;2023-11-21T08:41:06;40.80;;;26.58;;
33491;SDS011;20010;51.488;7.232;2023-11-21T08:43:37;36.85;;;23.95;;
33491;SDS011;20010;51.488;7.232;2023-11-21T08:46:06;47.17;;;28.00;;
33491;SDS011;20010;51.488;7.232;2023-11-21T08:48:35;42.58;;;26.80;;
33491;SDS011;20010;51.488;7.232;2023-11-21T08:51:05;45.27;;;28.43;;
33491;SDS011;20010;51.488;7.232;2023-11-21T08:53:32;47.88;;;28.52;;
33491;SDS011;20010;51.488;7.232;2023-11-21T08:55:59;57.88;;;32.55;;
33491;SDS011;20010;51.488;7.232;2023-11-21T08:58:26;65.78;;;32.80;;
33491;SDS011;20010;51.488;7.232;2023-11-21T09:00:52;58.03;;;31.92;;
33491;SDS011;20010;51.488;7.232;2023-11-21T09:03:19;65.20;;;33.97;;
33491;SDS011;20010;51.488;7.232;2023-11-21T09:05:46;68.32;;;37.45;;
33491;SDS011;20010;51.488;7.232;2023-11-21T09:08:12;70.10;;;37.08;;
33491;SDS011;20010;51.488;7.232;2023-11-21T09:10:39;63.15;;;36.72;;
33491;SDS011;20010;51.488;7.232;2023-11-21T09:13:06;73.55;;;38.67;;
33491;SDS011;20010;51.488;7.232;2023-11-21T09:15:35;76.90;;;37.78;;
33491;SDS011;20010;51.488;7.232;2023-11-21T09:18:02;74.20;;;37.45;;
33491;SDS011;20010;51.488;7.232;2023-11-21T09:20:28;70.15;;;37.58;;
33491;SDS011;20010;51.488;7.232;2023-11-21T09:22:55;61.60;;;37.67;;
33491;SDS011;20010;51.488;7.232;2023-11-21T09:25:22;58.50;;;35.00;;
33491;SDS011;20010;51.488;7.232;2023-11-21T09:27:49;78.82;;;38.03;;
33491;SDS011;20010;51.488;7.232;2023-11-21T09:30:15;66.07;;;37.65;;
33491;SDS011;20010;51.488;7.232;2023-11-21T09:32:42;69.03;;;37.97;;
33491;SDS011;20010;51.488;7.232;2023-11-21T09:35:12;68.85;;;38.83;;
33491;SDS011;20010;51.488;7.232;2023-11-21T09:37:40;72.57;;;40.35;;
33491;SDS011;20010;51.488;7.232;2023-11-21T09:40:09;73.80;;;40.20;;
33491;SDS011;20010;51.488;7.232;2023-11-21T09:42:40;77.95;;;42.80;;
33491;SDS011;20010;51.488;7.232;2023-11-21T09:45:15;70.93;;;38.97;;
33491;SDS011;20010;51.488;7.232;2023-11-21T09:47:46;75.80;;;41.35;;
33491;SDS011;20010;51.488;7.232;2023-11-21T09:50:14;74.82;;;42.20;;
33491;SDS011;20010;51.488;7.232;2023-11-21T09:57:42;75.18;;;38.28;;
33491;SDS011;20010;51.488;7.232;2023-11-21T10:00:09;87.97;;;47.92;;
33491;SDS011;20010;51.488;7.232;2023-11-21T10:02:38;81.78;;;45.38;;
33491;SDS011;20010;51.488;7.232;2023-11-21T10:05:07;86.38;;;46.45;;
33491;SDS011;20010;51.488;7.232;2023-11-21T10:07:36;83.28;;;43.17;;
33491;SDS011;20010;51.488;7.232;2023-11-21T10:10:02;86.95;;;45.15;;
33491;SDS011;20010;51.488;7.232;2023-11-21T10:12:29;83.75;;;48.20;;
33491;SDS011;20010;51.488;7.232;2023-11-21T10:14:57;81.90;;;43.47;;
33491;SDS011;20010;51.488;7.232;2023-11-21T10:17:24;88.93;;;46.10;;
33491;SDS011;20010;51.488;7.232;2023-11-21T10:19:55;94.38;;;46.65;;
33491;SDS011;20010;51.488;7.232;2023-11-21T10:22:22;95.05;;;48.17;;
33491;SDS011;20010;51.488;7.232;2023-11-21T10:24:50;96.55;;;48.03;;
33491;SDS011;20010;51.488;7.232;2023-11-21T10:27:19;90.72;;;46.95;;
33491;SDS011;20010;51.488;7.232;2023-11-21T10:29:46;86.70;;;44.38;;
33491;SDS011;20010;51.488;7.232;2023-11-21T10:32:12;81.68;;;44.80;;
33491;SDS011;20010;51.488;7.232;2023-11-21T10:34:39;93.95;;;46.95;;
33491;SDS011;20010;51.488;7.232;2023-11-21T10:37:16;81.20;;;42.47;;
33491;SDS011;20010;51.488;7.232;2023-11-21T10:39:45;79.40;;;43.78;;
33491;SDS011;20010;51.488;7.232;2023-11-21T10:42:11;85.03;;;42.47;;
33491;SDS011;20010;51.488;7.232;2023-11-21T10:44:38;75.45;;;41.33;;
33491;SDS011;20010;51.488;7.232;2023-11-21T10:47:05;70.63;;;43.38;;
33491;SDS011;20010;51.488;7.232;2023-11-21T10:49:38;65.97;;;39.85;;
33491;SDS011;20010;51.488;7.232;2023-11-21T10:52:06;74.25;;;40.97;;
33491;SDS011;20010;51.488;7.232;2023-11-21T10:54:33;81.95;;;44.65;;
33491;SDS011;20010;51.488;7.232;2023-11-21T10:57:02;72.60;;;40.80;;
33491;SDS011;20010;51.488;7.232;2023-11-21T10:59:30;69.22;;;38.55;;
33491;SDS011;20010;51.488;7.232;2023-11-21T11:01:58;78.70;;;43.20;;
33491;SDS011;20010;51.488;7.232;2023-11-21T11:04:27;85.63;;;41.25;;
33491;SDS011;20010;51.488;7.232;2023-11-21T11:06:55;77.25;;;38.45;;
33491;SDS011;20010;51.488;7.232;2023-11-21T11:09:23;68.78;;;38.00;;
33491;SDS011;20010;51.488;7.232;2023-11-21T11:11:51;70.72;;;40.60;;
33491;SDS011;20010;51.488;7.232;2023-11-21T11:14:17;65.10;;;37.47;;
33491;SDS011;20010;51.488;7.232;2023-11-21T11:16:46;71.20;;;38.88;;
33491;SDS011;20010;51.488;7.232;2023-11-21T11:19:13;66.03;;;38.35;;
33491;SDS011;20010;51.488;7.232;2023-11-21T11:21:45;77.32;;;41.65;;
33491;SDS011;20010;51.488;7.232;2023-11-21T11:29:47;66.88;;;37.58;;
33491;SDS011;20010;51.488;7.232;2023-11-21T11:32:24;79.97;;;41.30;;
33491;SDS011;20010;51.488;7.232;2023-11-21T11:37:32;66.78;;;36.95;;
33491;SDS011;20010;51.488;7.232;2023-11-21T11:39:59;63.38;;;36.63;;
33491;SDS011;20010;51.488;7.232;2023-11-21T11:42:26;58.08;;;34.22;;
33491;SDS011;20010;51.488;7.232;2023-11-21T11:44:53;62.35;;;35.58;;
33491;SDS011;20010;51.488;7.232;2023-11-21T11:52:47;56.75;;;34.97;;
33491;SDS011;20010;51.488;7.232;2023-11-21T11:55:15;62.03;;;35.47;;
33491;SDS011;20010;51.488;7.232;2023-11-21T11:57:48;56.15;;;33.60;;
33491;SDS011;20010;51.488;7.232;2023-11-21T12:00:22;48.03;;;32.28;;
33491;SDS011;20010;51.488;7.232;2023-11-21T12:03:01;47.97;;;30.75;;
33491;SDS011;20010;51.488;7.232;2023-11-21T12:05:30;48.33;;;31.45;;
33491;SDS011;20010;51.488;7.232;2023-11-21T12:08:11;48.92;;;30.35;;
33491;SDS011;20010;51.488;7.232;2023-11-21T12:10:38;46.40;;;28.95;;
33491;SDS011;20010;51.488;7.232;2023-11-21T12:13:07;37.85;;;25.30;;
33491;SDS011;20010;51.488;7.232;2023-11-21T12:15:34;35.88;;;24.50;;
33491;SDS011;20010;51.488;7.232;2023-11-21T12:18:02;31.92;;;23.80;;
33491;SDS011;20010;51.488;7.232;2023-11-21T12:20:30;30.38;;;22.95;;
33491;SDS011;20010;51.488;7.232;2023-11-21T12:22:58;34.28;;;22.50;;
33491;SDS011;20010;51.488;7.232;2023-11-21T12:25:29;35.50;;;23.58;;
33491;SDS011;20010;51.488;7.232;2023-11-21T12:28:00;34.35;;;22.08;;
33491;SDS011;20010;51.488;7.232;2023-11-21T12:30:30;33.03;;;22.92;;
33491;SDS011;20010;51.488;7.232;2023-11-21T12:32:58;25.38;;;20.88;;
33491;SDS011;20010;51.488;7.232;2023-11-21T12:35:28;26.50;;;22.10;;
33491;SDS011;20010;51.488;7.232;2023-11-21T12:37:56;30.83;;;22.25;;
33491;SDS011;20010;51.488;7.232;2023-11-21T12:40:23;22.40;;;18.75;;
33491;SDS011;20010;51.488;7.232;2023-11-21T12:42:54;22.95;;;18.20;;
33491;SDS011;20010;51.488;7.232;2023-11-21T12:45:22;25.75;;;18.00;;
33491;SDS011;20010;51.488;7.232;2023-11-21T12:47:55;17.90;;;15.82;;
33491;SDS011;20010;51.488;7.232;2023-11-21T12:50:27;23.88;;;16.50;;
33491;SDS011;20010;51.488;7.232;2023-11-21T12:52:59;20.98;;;16.60;;
33491;SDS011;20010;51.488;7.232;2023-11-21T12:55:29;19.10;;;16.33;;
33491;SDS011;20010;51.488;7.232;2023-11-21T12:58:02;19.70;;;16.70;;
33491;SDS011;20010;51.488;7.232;2023-11-21T13:00:35;21.15;;;18.85;;
33491;SDS011;20010;51.488;7.232;2023-11-21T13:03:04;19.05;;;15.75;;
33491;SDS011;20010;51.488;7.232;2023-11-21T13:05:35;21.00;;;18.05;;
33491;SDS011;20010;51.488;7.232;2023-11-21T13:08:09;19.65;;;17.55;;
33491;SDS011;20010;51.488;7.232;2023-11-21T13:10:42;23.42;;;17.48;;
33491;SDS011;20010;51.488;7.232;2023-11-21T13:13:13;20.10;;;18.02;;
33491;SDS011;20010;51.488;7.232;2023-11-21T13:18:23;19.80;;;16.63;;
33491;SDS011;20010;51.488;7.232;2023-11-21T13:20:50;20.77;;;16.98;;
33491;SDS011;20010;51.488;7.232;2023-11-21T13:23:19;21.70;;;17.77;;
33491;SDS011;20010;51.488;7.232;2023-11-21T13:25:46;21.27;;;17.85;;
33491;SDS011;20010;51.488;7.232;2023-11-21T13:28:27;21.40;;;17.77;;
33491;SDS011;20010;51.488;7.232;2023-11-21T13:30:58;21.83;;;17.13;;
33491;SDS011;20010;51.488;7.232;2023-11-21T13:33:30;22.00;;;18.00;;
33491;SDS011;20010;51.488;7.232;2023-11-21T13:35:59;21.08;;;17.00;;
33491;SDS011;20010;51.488;7.232;2023-11-21T13:38:27;23.52;;;19.63;;
33491;SDS011;20010;51.488;7.232;2023-11-21T13:40:59;21.95;;;17.52;;
33491;SDS011;20010;51.488;7.232;2023-11-21T13:43:26;22.17;;;18.13;;
33491;SDS011;20010;51.488;7.232;2023-11-21T13:45:55;22.08;;;16.55;;
33491;SDS011;20010;51.488;7.232;2023-11-21T13:48:40;22.38;;;17.38;;
33491;SDS011;20010;51.488;7.232;2023-11-21T13:51:16;22.45;;;17.42;;
33491;SDS011;20010;51.488;7.232;2023-11-21T13:53:47;24.73;;;19.23;;
33491;SDS011;20010;51.488;7.232;2023-11-21T13:56:17;22.95;;;17.13;;
33491;SDS011;20010;51.488;7.232;2023-11-21T13:58:49;22.55;;;17.60;;
33491;SDS011;20010;51.488;7.232;2023-11-21T14:01:19;23.73;;;17.17;;
33491;SDS011;20010;51.488;7.232;2023-11-21T14:03:56;22.25;;;16.35;;
33491;SDS011;20010;51.488;7.232;2023-11-21T14:06:29;21.92;;;16.23;;
33491;SDS011;20010;51.488;7.232;2023-11-21T14:09:01;21.02;;;16.17;;
33491;SDS011;20010;51.488;7.232;2023-11-21T14:11:32;23.65;;;18.02;;
33491;SDS011;20010;51.488;7.232;2023-11-21T14:14:08;20.13;;;16.67;;
33491;SDS011;20010;51.488;7.232;2023-11-21T14:16:36;20.08;;;16.70;;
33491;SDS011;20010;51.488;7.232;2023-11-21T14:19:02;21.02;;;16.83;;
33491;SDS011;20010;51.488;7.232;2023-11-21T14:21:31;22.00;;;15.98;;
33491;SDS011;20010;51.488;7.232;2023-11-21T14:23:58;21.50;;;16.63;;
33491;SDS011;20010;51.488;7.232;2023-11-21T14:26:25;21.20;;;17.17;;
33491;SDS011;20010;51.488;7.232;2023-11-21T14:28:51;21.30;;;16.50;;
33491;SDS011;20010;51.488;7.232;2023-11-21T14:31:19;18.70;;;15.07;;
33491;SDS011;20010;51.488;7.232;2023-11-21T14:33:46;18.83;;;14.73;;
33491;SDS011;20010;51.488;7.232;2023-11-21T14:36:13;18.48;;;14.07;;
33491;SDS011;20010;51.488;7.232;2023-11-21T14:38:43;15.45;;;13.45;;
33491;SDS011;20010;51.488;7.232;2023-11-21T14:41:10;17.20;;;12.70;;
33491;SDS011;20010;51.488;7.232;2023-11-21T14:43:37;15.15;;;12.50;;
33491;SDS011;20010;51.488;7.232;2023-11-21T14:46:05;14.20;;;11.77;;
33491;SDS011;20010;51.488;7.232;2023-11-21T14:51:09;14.23;;;10.27;;